sensor_id;sensor_type;location;lat;lon;timestamp;pressure;altitude;pressure_sealevel;temperature;humidity
47809;BME280;33573;38.790;-77.084;2023-07-31T00:01:52;101083.14;;;27.42;26.70
47809;BME280;33573;38.790;-77.084;2023-07-31T00:04:17;101084.15;;;27.35;26.77
47809;BME280;33573;38.790;-77.084;2023-07-31T00:06:42;101088.43;;;27.51;26.62
47809;BME280;33573;38.790;-77.084;2023-07-31T00:09:08;101087.16;;;27.49;26.70
47809;BME280;33573;38.790;-77.084;2023-07-31T00:11:33;101086.16;;;27.48;26.70
47809;BME280;33573;38.790;-77.084;2023-07-31T00:13:59;101084.31;;;27.38;26.88
47809;BME280;33573;38.790;-77.084;2023-07-31T00:16:24;101091.59;;;27.56;26.61
47809;BME280;33573;38.790;-77.084;2023-07-31T00:18:50;101095.20;;;27.46;26.81
47809;BME280;33573;38.790;-77.084;2023-07-31T00:21:15;101091.80;;;27.15;27.18
47809;BME280;33573;38.790;-77.084;2023-07-31T00:23:40;101094.38;;;27.14;27.18
47809;BME280;33573;38.790;-77.084;2023-07-31T00:26:06;101095.92;;;27.52;26.99
47809;BME280;33573;38.790;-77.084;2023-07-31T00:28:31;101105.61;;;27.80;26.62
47809;BME280;33573;38.790;-77.084;2023-07-31T00:30:57;101107.41;;;27.48;27.06
47809;BME280;33573;38.790;-77.084;2023-07-31T00:33:22;101112.47;;;27.07;27.60
47809;BME280;33573;38.790;-77.084;2023-07-31T00:35:48;101112.21;;;27.30;27.34
47809;BME280;33573;38.790;-77.084;2023-07-31T00:38:13;101117.24;;;27.01;27.79
47809;BME280;33573;38.790;-77.084;2023-07-31T00:40:38;101117.61;;;27.10;27.63
47809;BME280;33573;38.790;-77.084;2023-07-31T00:43:04;101119.78;;;27.01;27.96
47809;BME280;33573;38.790;-77.084;2023-07-31T00:45:29;101120.83;;;27.29;27.59
47809;BME280;33573;38.790;-77.084;2023-07-31T00:47:55;101120.71;;;26.86;28.18
47809;BME280;33573;38.790;-77.084;2023-07-31T00:50:20;101122.75;;;27.15;27.83
47809;BME280;33573;38.790;-77.084;2023-07-31T00:52:45;101124.66;;;27.23;27.77
47809;BME280;33573;38.790;-77.084;2023-07-31T00:55:11;101129.64;;;27.03;28.12
47809;BME280;33573;38.790;-77.084;2023-07-31T00:57:37;101128.81;;;27.37;27.66
47809;BME280;33573;38.790;-77.084;2023-07-31T01:00:02;101130.12;;;27.36;27.91
47809;BME280;33573;38.790;-77.084;2023-07-31T01:02:27;101131.59;;;27.15;27.99
47809;BME280;33573;38.790;-77.084;2023-07-31T01:04:53;101138.43;;;27.31;27.86
47809;BME280;33573;38.790;-77.084;2023-07-31T01:07:25;101145.46;;;26.87;27.94
47809;BME280;33573;38.790;-77.084;2023-07-31T01:09:48;101146.41;;;27.43;27.84
47809;BME280;33573;38.790;-77.084;2023-07-31T01:12:14;101138.84;;;26.80;28.47
47809;BME280;33573;38.790;-77.084;2023-07-31T01:14:34;101145.76;;;27.21;28.50
47809;BME280;33573;38.790;-77.084;2023-07-31T01:17:00;101146.52;;;27.58;27.73
47809;BME280;33573;38.790;-77.084;2023-07-31T01:19:26;101148.75;;;27.63;27.92
47809;BME280;33573;38.790;-77.084;2023-07-31T01:24:22;101157.02;;;25.88;28.58
47809;BME280;33573;38.790;-77.084;2023-07-31T01:26:45;101160.36;;;26.20;28.04
47809;BME280;33573;38.790;-77.084;2023-07-31T01:29:12;101161.57;;;25.68;27.86
47809;BME280;33573;38.790;-77.084;2023-07-31T01:31:32;101161.24;;;25.49;27.65
47809;BME280;33573;38.790;-77.084;2023-07-31T01:34:00;101159.17;;;25.30;27.25
47809;BME280;33573;38.790;-77.084;2023-07-31T01:36:23;101166.36;;;25.54;27.08
47809;BME280;33573;38.790;-77.084;2023-07-31T01:38:48;101166.35;;;24.95;26.84
47809;BME280;33573;38.790;-77.084;2023-07-31T01:41:16;101170.65;;;25.54;25.98
47809;BME280;33573;38.790;-77.084;2023-07-31T01:43:39;101164.42;;;24.84;26.30
47809;BME280;33573;38.790;-77.084;2023-07-31T01:46:05;101166.54;;;24.18;26.59
47809;BME280;33573;38.790;-77.084;2023-07-31T01:48:30;101169.39;;;24.52;26.19
47809;BME280;33573;38.790;-77.084;2023-07-31T01:50:55;101169.59;;;24.12;26.17
47809;BME280;33573;38.790;-77.084;2023-07-31T01:53:21;101171.22;;;24.54;25.66
47809;BME280;33573;38.790;-77.084;2023-07-31T01:55:46;101172.09;;;24.85;25.39
47809;BME280;33573;38.790;-77.084;2023-07-31T01:58:12;101170.21;;;24.79;25.38
47809;BME280;33573;38.790;-77.084;2023-07-31T02:00:37;101168.75;;;24.65;25.20
47809;BME280;33573;38.790;-77.084;2023-07-31T02:03:03;101171.40;;;24.57;25.01
47809;BME280;33573;38.790;-77.084;2023-07-31T02:05:28;101171.63;;;24.57;24.76
47809;BME280;33573;38.790;-77.084;2023-07-31T02:07:53;101170.89;;;24.64;24.65
47809;BME280;33573;38.790;-77.084;2023-07-31T02:10:19;101172.99;;;24.19;24.65
47809;BME280;33573;38.790;-77.084;2023-07-31T02:12:44;101177.94;;;24.61;24.82
47809;BME280;33573;38.790;-77.084;2023-07-31T02:15:10;101178.67;;;24.82;24.82
47809;BME280;33573;38.790;-77.084;2023-07-31T02:17:35;101182.63;;;24.72;24.76
47809;BME280;33573;38.790;-77.084;2023-07-31T02:20:00;101182.81;;;24.85;24.61
47809;BME280;33573;38.790;-77.084;2023-07-31T02:22:26;101186.66;;;25.19;24.52
47809;BME280;33573;38.790;-77.084;2023-07-31T02:24:51;101191.94;;;24.01;25.15
47809;BME280;33573;38.790;-77.084;2023-07-31T02:27:17;101190.61;;;24.20;24.94
47809;BME280;33573;38.790;-77.084;2023-07-31T02:29:42;101192.00;;;23.77;24.78
47809;BME280;33573;38.790;-77.084;2023-07-31T02:32:08;101192.17;;;24.14;24.81
47809;BME280;33573;38.790;-77.084;2023-07-31T02:34:33;101192.79;;;24.72;24.68
47809;BME280;33573;38.790;-77.084;2023-07-31T02:36:58;101190.67;;;24.38;24.73
47809;BME280;33573;38.790;-77.084;2023-07-31T02:39:24;101192.36;;;25.23;24.62
47809;BME280;33573;38.790;-77.084;2023-07-31T02:41:49;101188.04;;;24.13;25.18
47809;BME280;33573;38.790;-77.084;2023-07-31T02:44:15;101189.06;;;24.52;24.57
47809;BME280;33573;38.790;-77.084;2023-07-31T02:46:40;101191.39;;;24.34;24.65
47809;BME280;33573;38.790;-77.084;2023-07-31T02:49:06;101187.32;;;24.72;24.31
47809;BME280;33573;38.790;-77.084;2023-07-31T02:51:31;101188.27;;;24.97;24.05
47809;BME280;33573;38.790;-77.084;2023-07-31T02:53:56;101190.87;;;24.89;24.11
47809;BME280;33573;38.790;-77.084;2023-07-31T02:56:22;101189.93;;;24.83;24.30
47809;BME280;33573;38.790;-77.084;2023-07-31T02:58:47;101185.62;;;24.59;24.52
47809;BME280;33573;38.790;-77.084;2023-07-31T03:01:13;101182.41;;;24.54;24.80
47809;BME280;33573;38.790;-77.084;2023-07-31T03:03:38;101181.57;;;24.66;25.09
47809;BME280;33573;38.790;-77.084;2023-07-31T03:06:03;101176.13;;;24.26;25.40
47809;BME280;33573;38.790;-77.084;2023-07-31T03:08:29;101172.25;;;24.44;25.62
47809;BME280;33573;38.790;-77.084;2023-07-31T03:10:54;101174.00;;;24.66;25.57
47809;BME280;33573;38.790;-77.084;2023-07-31T03:13:20;101170.42;;;24.56;25.77
47809;BME280;33573;38.790;-77.084;2023-07-31T03:15:45;101175.68;;;24.63;25.07
47809;BME280;33573;38.790;-77.084;2023-07-31T03:18:11;101174.49;;;25.30;24.00
47809;BME280;33573;38.790;-77.084;2023-07-31T03:20:36;101174.05;;;24.74;24.14
47809;BME280;33573;38.790;-77.084;2023-07-31T03:23:01;101171.48;;;25.14;23.92
47809;BME280;33573;38.790;-77.084;2023-07-31T03:25:27;101179.09;;;24.60;24.59
47809;BME280;33573;38.790;-77.084;2023-07-31T03:27:52;101176.83;;;24.84;24.69
47809;BME280;33573;38.790;-77.084;2023-07-31T03:30:18;101174.21;;;25.22;24.96
47809;BME280;33573;38.790;-77.084;2023-07-31T03:32:43;101173.87;;;24.54;25.35
47809;BME280;33573;38.790;-77.084;2023-07-31T03:35:09;101171.44;;;24.45;25.37
47809;BME280;33573;38.790;-77.084;2023-07-31T03:37:34;101166.80;;;24.36;25.35
47809;BME280;33573;38.790;-77.084;2023-07-31T03:39:59;101162.20;;;24.29;24.77
47809;BME280;33573;38.790;-77.084;2023-07-31T03:42:25;101166.81;;;25.16;23.95
47809;BME280;33573;38.790;-77.084;2023-07-31T03:44:50;101167.47;;;24.23;24.40
47809;BME280;33573;38.790;-77.084;2023-07-31T03:47:16;101167.20;;;24.25;24.59
47809;BME280;33573;38.790;-77.084;2023-07-31T03:49:41;101167.40;;;24.21;24.91
47809;BME280;33573;38.790;-77.084;2023-07-31T03:52:07;101167.81;;;24.39;24.99
47809;BME280;33573;38.790;-77.084;2023-07-31T03:54:32;101166.85;;;24.56;25.06
47809;BME280;33573;38.790;-77.084;2023-07-31T03:56:58;101164.72;;;25.30;24.60
47809;BME280;33573;38.790;-77.084;2023-07-31T03:59:23;101169.55;;;24.93;25.07
47809;BME280;33573;38.790;-77.084;2023-07-31T04:01:48;101172.52;;;24.54;25.54
47809;BME280;33573;38.790;-77.084;2023-07-31T04:04:13;101171.61;;;24.40;25.78
47809;BME280;33573;38.790;-77.084;2023-07-31T04:06:39;101174.20;;;24.40;25.54
47809;BME280;33573;38.790;-77.084;2023-07-31T04:09:04;101178.10;;;23.82;25.41
47809;BME280;33573;38.790;-77.084;2023-07-31T04:11:30;101176.45;;;24.33;24.77
47809;BME280;33573;38.790;-77.084;2023-07-31T04:13:55;101173.73;;;24.62;24.24
47809;BME280;33573;38.790;-77.084;2023-07-31T04:16:20;101169.54;;;24.64;24.63
47809;BME280;33573;38.790;-77.084;2023-07-31T04:18:46;101166.20;;;24.53;24.73
47809;BME280;33573;38.790;-77.084;2023-07-31T04:21:11;101162.32;;;24.53;25.00
47809;BME280;33573;38.790;-77.084;2023-07-31T04:23:37;101160.41;;;24.76;25.04
47809;BME280;33573;38.790;-77.084;2023-07-31T04:26:02;101158.32;;;25.03;24.91
47809;BME280;33573;38.790;-77.084;2023-07-31T04:28:28;101161.70;;;25.40;24.72
47809;BME280;33573;38.790;-77.084;2023-07-31T04:30:53;101167.27;;;25.30;24.87
47809;BME280;33573;38.790;-77.084;2023-07-31T04:33:19;101173.77;;;24.26;25.98
47809;BME280;33573;38.790;-77.084;2023-07-31T04:35:49;101176.40;;;24.11;25.56
47809;BME280;33573;38.790;-77.084;2023-07-31T04:38:09;101168.42;;;23.79;25.40
47809;BME280;33573;38.790;-77.084;2023-07-31T04:40:35;101165.12;;;23.75;25.26
47809;BME280;33573;38.790;-77.084;2023-07-31T04:43:00;101160.46;;;24.50;24.68
47809;BME280;33573;38.790;-77.084;2023-07-31T04:45:25;101159.02;;;24.19;25.10
47809;BME280;33573;38.790;-77.084;2023-07-31T04:47:51;101165.84;;;24.60;24.96
47809;BME280;33573;38.790;-77.084;2023-07-31T04:50:16;101163.62;;;24.71;25.09
47809;BME280;33573;38.790;-77.084;2023-07-31T04:52:42;101157.93;;;25.41;24.59
47809;BME280;33573;38.790;-77.084;2023-07-31T04:55:08;101161.83;;;24.66;25.47
47809;BME280;33573;38.790;-77.084;2023-07-31T04:57:33;101160.86;;;25.11;25.16
47809;BME280;33573;38.790;-77.084;2023-07-31T04:59:58;101158.12;;;25.60;24.81
47809;BME280;33573;38.790;-77.084;2023-07-31T05:02:24;101153.46;;;25.61;24.96
47809;BME280;33573;38.790;-77.084;2023-07-31T05:04:49;101153.92;;;25.29;25.35
47809;BME280;33573;38.790;-77.084;2023-07-31T05:07:14;101155.04;;;25.15;25.54
47809;BME280;33573;38.790;-77.084;2023-07-31T05:09:40;101156.75;;;24.84;25.92
47809;BME280;33573;38.790;-77.084;2023-07-31T05:12:06;101153.75;;;25.57;25.32
47809;BME280;33573;38.790;-77.084;2023-07-31T05:14:31;101161.06;;;24.69;26.23
47809;BME280;33573;38.790;-77.084;2023-07-31T05:16:56;101159.83;;;24.66;26.21
47809;BME280;33573;38.790;-77.084;2023-07-31T05:19:21;101161.45;;;23.95;26.31
47809;BME280;33573;38.790;-77.084;2023-07-31T05:21:47;101158.13;;;23.81;25.87
47809;BME280;33573;38.790;-77.084;2023-07-31T05:24:12;101156.07;;;23.88;25.70
47809;BME280;33573;38.790;-77.084;2023-07-31T05:26:38;101156.96;;;24.18;25.48
47809;BME280;33573;38.790;-77.084;2023-07-31T05:29:03;101156.64;;;24.79;25.02
47809;BME280;33573;38.790;-77.084;2023-07-31T05:31:28;101156.15;;;25.53;24.78
47809;BME280;33573;38.790;-77.084;2023-07-31T05:33:54;101157.03;;;25.01;25.34
47809;BME280;33573;38.790;-77.084;2023-07-31T05:36:19;101154.15;;;25.69;24.65
47809;BME280;33573;38.790;-77.084;2023-07-31T05:38:45;101151.20;;;24.92;25.39
47809;BME280;33573;38.790;-77.084;2023-07-31T05:41:11;101152.87;;;25.96;24.52
47809;BME280;33573;38.790;-77.084;2023-07-31T05:43:36;101149.88;;;25.48;25.00
47809;BME280;33573;38.790;-77.084;2023-07-31T05:46:01;101143.79;;;25.37;25.18
47809;BME280;33573;38.790;-77.084;2023-07-31T05:48:26;101154.22;;;25.33;25.25
47809;BME280;33573;38.790;-77.084;2023-07-31T05:50:52;101156.33;;;25.42;25.23
47809;BME280;33573;38.790;-77.084;2023-07-31T05:53:17;101149.10;;;25.49;25.24
47809;BME280;33573;38.790;-77.084;2023-07-31T05:55:43;101144.68;;;25.49;25.31
47809;BME280;33573;38.790;-77.084;2023-07-31T05:58:08;101150.48;;;25.33;25.51
47809;BME280;33573;38.790;-77.084;2023-07-31T06:00:33;101157.46;;;25.39;25.54
47809;BME280;33573;38.790;-77.084;2023-07-31T06:02:59;101172.43;;;25.59;25.39
47809;BME280;33573;38.790;-77.084;2023-07-31T06:05:24;101182.33;;;25.61;25.43
47809;BME280;33573;38.790;-77.084;2023-07-31T06:07:50;101190.67;;;25.66;25.44
47809;BME280;33573;38.790;-77.084;2023-07-31T06:10:15;101200.39;;;24.94;26.21
47809;BME280;33573;38.790;-77.084;2023-07-31T06:12:41;101208.64;;;25.21;26.08
47809;BME280;33573;38.790;-77.084;2023-07-31T06:15:07;101207.98;;;25.85;25.48
47809;BME280;33573;38.790;-77.084;2023-07-31T06:17:31;101207.09;;;25.64;25.69
47809;BME280;33573;38.790;-77.084;2023-07-31T06:19:57;101205.65;;;25.51;25.92
47809;BME280;33573;38.790;-77.084;2023-07-31T06:22:22;101208.22;;;25.53;25.99
47809;BME280;33573;38.790;-77.084;2023-07-31T06:24:48;101209.82;;;25.23;26.42
47809;BME280;33573;38.790;-77.084;2023-07-31T06:27:13;101211.31;;;24.28;27.02
47809;BME280;33573;38.790;-77.084;2023-07-31T06:29:39;101217.90;;;24.40;26.28
47809;BME280;33573;38.790;-77.084;2023-07-31T06:32:04;101217.57;;;25.85;25.13
47809;BME280;33573;38.790;-77.084;2023-07-31T06:34:29;101218.48;;;24.87;26.05
47809;BME280;33573;38.790;-77.084;2023-07-31T06:36:55;101218.28;;;24.82;26.08
47809;BME280;33573;38.790;-77.084;2023-07-31T06:39:20;101226.53;;;25.24;25.91
47809;BME280;33573;38.790;-77.084;2023-07-31T06:41:46;101224.22;;;25.30;25.93
47809;BME280;33573;38.790;-77.084;2023-07-31T06:44:11;101223.72;;;25.47;26.11
47809;BME280;33573;38.790;-77.084;2023-07-31T06:46:37;101218.29;;;25.41;26.13
47809;BME280;33573;38.790;-77.084;2023-07-31T06:49:02;101216.13;;;25.12;26.40
47809;BME280;33573;38.790;-77.084;2023-07-31T06:51:27;101214.71;;;25.31;26.35
47809;BME280;33573;38.790;-77.084;2023-07-31T06:53:53;101212.76;;;25.19;26.65
47809;BME280;33573;38.790;-77.084;2023-07-31T06:56:18;101214.27;;;24.88;27.07
47809;BME280;33573;38.790;-77.084;2023-07-31T06:58:44;101213.07;;;25.49;26.46
47809;BME280;33573;38.790;-77.084;2023-07-31T07:01:09;101208.13;;;24.45;27.58
47809;BME280;33573;38.790;-77.084;2023-07-31T07:03:34;101209.72;;;24.73;27.32
47809;BME280;33573;38.790;-77.084;2023-07-31T07:06:00;101205.75;;;24.84;27.20
47809;BME280;33573;38.790;-77.084;2023-07-31T07:08:25;101195.99;;;25.23;26.81
47809;BME280;33573;38.790;-77.084;2023-07-31T07:10:51;101193.56;;;24.69;27.53
47809;BME280;33573;38.790;-77.084;2023-07-31T07:13:16;101185.49;;;25.32;26.89
47809;BME280;33573;38.790;-77.084;2023-07-31T07:15:42;101173.94;;;25.34;26.91
47809;BME280;33573;38.790;-77.084;2023-07-31T07:18:07;101171.46;;;25.52;26.88
47809;BME280;33573;38.790;-77.084;2023-07-31T07:20:32;101167.11;;;25.63;26.75
47809;BME280;33573;38.790;-77.084;2023-07-31T07:22:58;101163.28;;;25.10;27.41
47809;BME280;33573;38.790;-77.084;2023-07-31T07:25:23;101159.63;;;25.22;27.22
47809;BME280;33573;38.790;-77.084;2023-07-31T07:27:49;101143.81;;;25.22;27.33
47809;BME280;33573;38.790;-77.084;2023-07-31T07:30:14;101137.74;;;25.21;27.38
47809;BME280;33573;38.790;-77.084;2023-07-31T07:32:39;101136.15;;;25.64;26.98
47809;BME280;33573;38.790;-77.084;2023-07-31T07:35:06;101133.75;;;25.58;27.21
47809;BME280;33573;38.790;-77.084;2023-07-31T07:37:30;101132.41;;;25.26;27.52
47809;BME280;33573;38.790;-77.084;2023-07-31T07:39:56;101129.09;;;25.39;27.37
47809;BME280;33573;38.790;-77.084;2023-07-31T07:42:21;101124.35;;;25.62;27.49
47809;BME280;33573;38.790;-77.084;2023-07-31T07:44:47;101121.12;;;25.35;27.43
47809;BME280;33573;38.790;-77.084;2023-07-31T07:47:13;101119.23;;;25.02;28.18
47809;BME280;33573;38.790;-77.084;2023-07-31T07:49:37;101122.18;;;25.45;27.50
47809;BME280;33573;38.790;-77.084;2023-07-31T07:52:04;101118.19;;;25.32;27.88
47809;BME280;33573;38.790;-77.084;2023-07-31T07:54:28;101111.95;;;25.56;27.39
47809;BME280;33573;38.790;-77.084;2023-07-31T07:56:54;101103.18;;;25.50;27.43
47809;BME280;33573;38.790;-77.084;2023-07-31T07:59:19;101100.60;;;25.78;27.40
47809;BME280;33573;38.790;-77.084;2023-07-31T08:01:45;101093.21;;;25.26;27.85
47809;BME280;33573;38.790;-77.084;2023-07-31T08:04:10;101081.54;;;25.44;27.60
47809;BME280;33573;38.790;-77.084;2023-07-31T08:06:35;101077.48;;;25.69;27.61
47809;BME280;33573;38.790;-77.084;2023-07-31T08:09:01;101075.64;;;25.61;27.73
47809;BME280;33573;38.790;-77.084;2023-07-31T08:11:26;101070.35;;;25.32;27.91
47809;BME280;33573;38.790;-77.084;2023-07-31T08:13:52;101061.70;;;25.19;27.86
47809;BME280;33573;38.790;-77.084;2023-07-31T08:16:17;101069.22;;;25.26;27.87
47809;BME280;33573;38.790;-77.084;2023-07-31T08:18:43;101071.87;;;25.35;27.91
47809;BME280;33573;38.790;-77.084;2023-07-31T08:21:08;101067.38;;;25.25;27.97
47809;BME280;33573;38.790;-77.084;2023-07-31T08:23:33;101067.29;;;25.82;27.69
47809;BME280;33573;38.790;-77.084;2023-07-31T08:25:59;101068.55;;;25.50;28.08
47809;BME280;33573;38.790;-77.084;2023-07-31T08:28:24;101066.09;;;25.41;28.00
47809;BME280;33573;38.790;-77.084;2023-07-31T08:30:50;101062.25;;;25.36;27.96
47809;BME280;33573;38.790;-77.084;2023-07-31T08:33:15;101063.92;;;25.59;27.68
47809;BME280;33573;38.790;-77.084;2023-07-31T08:35:40;101070.68;;;24.86;28.79
47809;BME280;33573;38.790;-77.084;2023-07-31T08:38:06;101075.93;;;25.05;28.40
47809;BME280;33573;38.790;-77.084;2023-07-31T08:40:31;101074.76;;;25.20;28.22
47809;BME280;33573;38.790;-77.084;2023-07-31T08:42:57;101079.44;;;25.63;27.76
47809;BME280;33573;38.790;-77.084;2023-07-31T08:45:23;101081.70;;;25.32;28.11
47809;BME280;33573;38.790;-77.084;2023-07-31T08:47:49;101086.96;;;25.75;28.19
47809;BME280;33573;38.790;-77.084;2023-07-31T08:50:13;101094.13;;;25.42;27.97
47809;BME280;33573;38.790;-77.084;2023-07-31T08:52:38;101094.93;;;26.08;27.59
47809;BME280;33573;38.790;-77.084;2023-07-31T08:55:05;101098.06;;;25.74;27.72
47809;BME280;33573;38.790;-77.084;2023-07-31T08:57:29;101103.28;;;25.10;28.47
47809;BME280;33573;38.790;-77.084;2023-07-31T08:59:55;101104.29;;;24.92;28.74
47809;BME280;33573;38.790;-77.084;2023-07-31T09:02:21;101105.99;;;24.53;29.14
47809;BME280;33573;38.790;-77.084;2023-07-31T09:04:46;101105.38;;;23.72;29.30
47809;BME280;33573;38.790;-77.084;2023-07-31T09:07:12;101105.46;;;23.92;28.77
47809;BME280;33573;38.790;-77.084;2023-07-31T09:09:36;101103.82;;;24.58;27.71
47809;BME280;33573;38.790;-77.084;2023-07-31T09:12:02;101105.56;;;25.05;27.58
47809;BME280;33573;38.790;-77.084;2023-07-31T09:14:27;101117.93;;;24.79;27.88
47809;BME280;33573;38.790;-77.084;2023-07-31T09:16:54;101131.17;;;25.38;27.35
47809;BME280;33573;38.790;-77.084;2023-07-31T09:19:25;101143.08;;;25.42;27.44
47809;BME280;33573;38.790;-77.084;2023-07-31T09:21:48;101148.54;;;25.52;27.42
47809;BME280;33573;38.790;-77.084;2023-07-31T09:24:09;101148.76;;;24.58;28.21
47809;BME280;33573;38.790;-77.084;2023-07-31T09:26:36;101148.52;;;24.25;28.64
47809;BME280;33573;38.790;-77.084;2023-07-31T09:29:00;101154.53;;;24.31;28.61
47809;BME280;33573;38.790;-77.084;2023-07-31T09:31:39;101158.68;;;25.05;28.08
47809;BME280;33573;38.790;-77.084;2023-07-31T09:33:55;101155.38;;;25.07;28.15
47809;BME280;33573;38.790;-77.084;2023-07-31T09:36:16;101159.28;;;25.25;27.74
47809;BME280;33573;38.790;-77.084;2023-07-31T09:38:41;101174.02;;;25.03;28.16
47809;BME280;33573;38.790;-77.084;2023-07-31T09:41:07;101172.71;;;25.47;27.49
47809;BME280;33573;38.790;-77.084;2023-07-31T09:43:32;101173.26;;;24.26;29.11
47809;BME280;33573;38.790;-77.084;2023-07-31T09:45:58;101174.19;;;24.54;28.94
47809;BME280;33573;38.790;-77.084;2023-07-31T09:48:24;101182.74;;;25.10;28.60
47809;BME280;33573;38.790;-77.084;2023-07-31T09:50:49;101182.81;;;25.49;28.28
47809;BME280;33573;38.790;-77.084;2023-07-31T09:53:15;101175.61;;;25.45;28.09
47809;BME280;33573;38.790;-77.084;2023-07-31T09:55:40;101177.74;;;25.39;28.24
47809;BME280;33573;38.790;-77.084;2023-07-31T09:58:06;101181.77;;;24.57;28.80
47809;BME280;33573;38.790;-77.084;2023-07-31T10:00:31;101186.71;;;24.89;28.77
47809;BME280;33573;38.790;-77.084;2023-07-31T10:02:59;101188.02;;;24.46;29.01
47809;BME280;33573;38.790;-77.084;2023-07-31T10:05:21;101188.76;;;24.81;28.66
47809;BME280;33573;38.790;-77.084;2023-07-31T10:07:53;101188.30;;;24.42;29.42
47809;BME280;33573;38.790;-77.084;2023-07-31T10:10:13;101183.64;;;24.30;29.26
47809;BME280;33573;38.790;-77.084;2023-07-31T10:12:38;101190.00;;;25.36;28.71
47809;BME280;33573;38.790;-77.084;2023-07-31T10:15:04;101196.61;;;25.15;28.67
47809;BME280;33573;38.790;-77.084;2023-07-31T10:17:29;101196.93;;;24.94;28.82
47809;BME280;33573;38.790;-77.084;2023-07-31T10:19:54;101197.86;;;25.37;28.44
47809;BME280;33573;38.790;-77.084;2023-07-31T10:22:19;101200.55;;;25.23;28.34
47809;BME280;33573;38.790;-77.084;2023-07-31T10:24:45;101204.49;;;25.30;28.53
47809;BME280;33573;38.790;-77.084;2023-07-31T10:27:10;101200.21;;;25.29;28.78
47809;BME280;33573;38.790;-77.084;2023-07-31T10:29:36;101198.74;;;24.92;29.00
47809;BME280;33573;38.790;-77.084;2023-07-31T10:32:01;101195.26;;;24.63;29.29
47809;BME280;33573;38.790;-77.084;2023-07-31T10:34:26;101199.01;;;24.87;29.11
47809;BME280;33573;38.790;-77.084;2023-07-31T10:39:35;101207.13;;;25.34;28.50
47809;BME280;33573;38.790;-77.084;2023-07-31T10:41:42;101211.83;;;25.67;28.50
47809;BME280;33573;38.790;-77.084;2023-07-31T10:44:08;101220.36;;;24.81;29.01
47809;BME280;33573;38.790;-77.084;2023-07-31T10:46:33;101224.74;;;24.84;29.25
47809;BME280;33573;38.790;-77.084;2023-07-31T10:49:00;101233.15;;;24.59;29.30
47809;BME280;33573;38.790;-77.084;2023-07-31T10:51:32;101240.79;;;25.04;29.36
47809;BME280;33573;38.790;-77.084;2023-07-31T10:53:56;101243.35;;;24.30;29.62
47809;BME280;33573;38.790;-77.084;2023-07-31T10:56:15;101240.79;;;24.95;29.04
47809;BME280;33573;38.790;-77.084;2023-07-31T10:58:44;101243.92;;;25.17;28.83
47809;BME280;33573;38.790;-77.084;2023-07-31T11:01:06;101247.63;;;24.95;29.04
47809;BME280;33573;38.790;-77.084;2023-07-31T11:03:41;101251.72;;;24.78;29.22
47809;BME280;33573;38.790;-77.084;2023-07-31T11:06:01;101252.93;;;25.29;28.95
47809;BME280;33573;38.790;-77.084;2023-07-31T11:08:23;101253.50;;;25.04;29.14
47809;BME280;33573;38.790;-77.084;2023-07-31T11:10:49;101255.33;;;24.96;29.05
47809;BME280;33573;38.790;-77.084;2023-07-31T11:13:14;101255.52;;;24.88;29.37
47809;BME280;33573;38.790;-77.084;2023-07-31T11:15:39;101262.74;;;24.49;29.65
47809;BME280;33573;38.790;-77.084;2023-07-31T11:18:04;101266.96;;;25.18;29.50
47809;BME280;33573;38.790;-77.084;2023-07-31T11:20:30;101273.84;;;24.51;29.75
47809;BME280;33573;38.790;-77.084;2023-07-31T11:22:57;101277.44;;;25.14;29.70
47809;BME280;33573;38.790;-77.084;2023-07-31T11:25:20;101283.05;;;23.81;31.11
47809;BME280;33573;38.790;-77.084;2023-07-31T11:27:45;101287.98;;;24.47;30.33
47809;BME280;33573;38.790;-77.084;2023-07-31T11:30:12;101291.56;;;23.95;30.93
47809;BME280;33573;38.790;-77.084;2023-07-31T11:32:37;101295.96;;;23.88;31.35
47809;BME280;33573;38.790;-77.084;2023-07-31T11:35:02;101299.36;;;23.75;31.46
47809;BME280;33573;38.790;-77.084;2023-07-31T11:39:59;101308.96;;;23.62;31.52
47809;BME280;33573;38.790;-77.084;2023-07-31T11:42:18;101303.33;;;24.25;31.06
47809;BME280;33573;38.790;-77.084;2023-07-31T11:44:43;101297.55;;;24.75;30.48
47809;BME280;33573;38.790;-77.084;2023-07-31T11:47:09;101300.05;;;24.25;30.80
47809;BME280;33573;38.790;-77.084;2023-07-31T11:49:37;101301.56;;;24.33;30.76
47809;BME280;33573;38.790;-77.084;2023-07-31T11:52:00;101305.60;;;24.58;30.52
47809;BME280;33573;38.790;-77.084;2023-07-31T11:54:25;101307.81;;;24.67;30.77
47809;BME280;33573;38.790;-77.084;2023-07-31T11:56:51;101306.83;;;24.90;30.54
47809;BME280;33573;38.790;-77.084;2023-07-31T11:59:16;101309.83;;;24.81;30.49
47809;BME280;33573;38.790;-77.084;2023-07-31T12:01:42;101311.67;;;24.90;30.29
47809;BME280;33573;38.790;-77.084;2023-07-31T12:04:07;101309.31;;;24.87;30.31
47809;BME280;33573;38.790;-77.084;2023-07-31T12:06:34;101310.13;;;24.45;30.86
47809;BME280;33573;38.790;-77.084;2023-07-31T12:09:02;101313.77;;;24.52;30.75
47809;BME280;33573;38.790;-77.084;2023-07-31T12:11:23;101317.83;;;24.50;30.87
47809;BME280;33573;38.790;-77.084;2023-07-31T12:13:49;101318.21;;;24.90;30.33
47809;BME280;33573;38.790;-77.084;2023-07-31T12:16:14;101322.23;;;25.18;30.05
47809;BME280;33573;38.790;-77.084;2023-07-31T12:18:40;101330.60;;;24.67;30.69
47809;BME280;33573;38.790;-77.084;2023-07-31T12:21:08;101330.18;;;24.85;30.48
47809;BME280;33573;38.790;-77.084;2023-07-31T12:23:32;101329.52;;;25.09;30.23
47809;BME280;33573;38.790;-77.084;2023-07-31T12:26:02;101336.14;;;24.89;30.50
47809;BME280;33573;38.790;-77.084;2023-07-31T12:28:23;101339.99;;;24.65;30.76